Time;durP1;ratioP1;P1;durP2;ratioP2;P2;SDS_P1;SDS_P2;PMS_P1;PMS_P2;Temp;Humidity;BMP_temperature;BMP_pressure;BME280_temperature;BME280_humidity;BME280_pressure;Samples;Min_cycle;Max_cycle;Signal;HPM_P1;HPM_P2
2024/01/08 00:02:03;;;;;;;6.20;4.80;;;22.90;48.50;;;;;;221798;1269;24253;-53
2024/01/08 00:07:08;;;;;;;9.60;5.10;;;22.80;48.30;;;;;;221816;1263;22580;-52
2024/01/08 00:12:12;;;;;;;6.30;4.80;;;22.70;48.50;;;;;;221861;1258;22541;-54
2024/01/08 00:17:16;;;;;;;4.90;4.50;;;22.70;48.80;;;;;;221931;1267;22649;-50
2024/01/08 00:22:20;;;;;;;6.00;4.70;;;22.70;48.20;;;;;;221875;1269;25610;-53
2024/01/08 00:27:25;;;;;;;5.00;4.50;;;22.80;48.20;;;;;;222298;1252;24260;-52
2024/01/08 00:32:29;;;;;;;6.30;4.40;;;22.80;48.00;;;;;;221910;1262;24244;-51
2024/01/08 00:37:35;;;;;;;4.90;4.00;;;22.80;47.90;;;;;;222359;1260;22546;-51
2024/01/08 00:42:39;;;;;;;8.70;4.70;;;22.80;47.70;;;;;;222456;1263;25710;-52
2024/01/08 00:47:44;;;;;;;5.40;4.60;;;22.90;47.60;;;;;;222247;1260;22558;-50
2024/01/08 00:52:48;;;;;;;5.30;4.80;;;23.00;47.10;;;;;;222419;1259;24196;-51
2024/01/08 00:57:54;;;;;;;5.60;5.10;;;23.10;47.50;;;;;;222598;1248;22553;-53
2024/01/08 01:02:58;;;;;;;5.90;4.70;;;23.00;47.20;;;;;;222271;1253;26045;-52
2024/01/08 01:08:03;;;;;;;4.70;3.90;;;23.00;47.10;;;;;;225486;1268;23415;-53
2024/01/08 01:13:07;;;;;;;4.50;4.10;;;23.00;47.40;;;;;;222253;1267;26277;-53
2024/01/08 01:18:11;;;;;;;5.90;5.00;;;23.10;47.00;;;;;;222979;1266;24190;-48
2024/01/08 01:23:16;;;;;;;5.30;4.60;;;23.00;47.10;;;;;;222421;1261;24195;-49
2024/01/08 01:28:20;;;;;;;4.80;4.30;;;23.00;47.00;;;;;;222634;1268;24192;-50
2024/01/08 01:33:25;;;;;;;4.90;4.50;;;23.00;46.90;;;;;;222374;1266;23270;-53
2024/01/08 01:38:30;;;;;;;4.60;4.00;;;23.00;46.80;;;;;;222334;1256;24053;-52
2024/01/08 01:43:34;;;;;;;6.00;5.20;;;23.00;46.80;;;;;;222507;1267;23015;-51
2024/01/08 01:48:38;;;;;;;7.80;4.50;;;23.00;46.90;;;;;;222485;1267;24315;-52
2024/01/08 01:53:45;;;;;;;4.20;3.80;;;23.00;46.80;;;;;;222573;1265;22559;-52
2024/01/08 01:58:49;;;;;;;4.80;4.40;;;23.10;46.60;;;;;;223037;1268;23291;-51
2024/01/08 02:03:54;;;;;;;5.40;4.90;;;23.10;47.00;;;;;;222229;1262;22555;-49
2024/01/08 02:09:01;;;;;;;5.00;4.50;;;23.10;46.80;;;;;;222594;1268;25360;-51
2024/01/08 02:14:05;;;;;;;6.40;4.40;;;23.00;46.70;;;;;;222207;1267;22561;-51
2024/01/08 02:19:13;;;;;;;4.80;4.10;;;23.10;47.00;;;;;;222212;1263;22517;-50
2024/01/08 02:24:17;;;;;;;7.00;4.50;;;23.10;46.10;;;;;;222570;1265;22978;-51
2024/01/08 02:29:24;;;;;;;6.20;4.40;;;23.10;46.50;;;;;;222202;1268;25240;-52
2024/01/08 02:34:29;;;;;;;5.70;4.70;;;23.10;46.50;;;;;;222073;1262;22889;-53
2024/01/08 02:39:33;;;;;;;4.70;4.20;;;23.30;46.50;;;;;;222155;1262;23676;-52
2024/01/08 02:44:37;;;;;;;5.40;4.50;;;23.30;46.30;;;;;;221987;1262;24148;-51
2024/01/08 02:49:42;;;;;;;4.40;4.00;;;23.10;46.40;;;;;;222033;1259;24340;-50
2024/01/08 02:54:46;;;;;;;5.10;4.60;;;23.00;46.60;;;;;;222348;1258;23450;-49
2024/01/08 02:59:50;;;;;;;4.50;4.10;;;22.80;46.60;;;;;;221989;1256;22538;-51
2024/01/08 03:04:54;;;;;;;5.20;4.70;;;22.70;46.70;;;;;;221948;1266;24673;-52
2024/01/08 03:09:59;;;;;;;5.40;4.70;;;22.80;47.10;;;;;;224833;1250;22537;-53
2024/01/08 03:15:04;;;;;;;4.70;4.20;;;22.90;46.50;;;;;;221554;1261;25289;-52
2024/01/08 03:20:09;;;;;;;4.60;4.20;;;22.90;46.50;;;;;;224214;1251;22556;-52
2024/01/08 03:25:14;;;;;;;5.10;4.50;;;23.00;46.20;;;;;;221848;1266;22529;-50
2024/01/08 03:30:18;;;;;;;5.30;4.70;;;23.00;46.40;;;;;;222117;1264;24193;-52
2024/01/08 03:35:22;;;;;;;5.00;4.50;;;23.00;46.20;;;;;;222498;1265;24204;-52
2024/01/08 03:40:27;;;;;;;4.70;4.20;;;23.00;46.20;;;;;;222003;1263;22650;-54
2024/01/08 03:45:31;;;;;;;5.50;4.50;;;23.20;46.20;;;;;;222119;1265;25370;-51
2024/01/08 03:50:35;;;;;;;4.60;4.20;;;23.20;45.80;;;;;;221915;1262;22540;-52
2024/01/08 03:55:40;;;;;;;4.90;4.40;;;23.10;46.50;;;;;;221908;1268;25335;-50
2024/01/08 04:00:44;;;;;;;5.10;4.60;;;23.10;46.00;;;;;;222109;1258;24256;-54
2024/01/08 04:05:48;;;;;;;6.40;4.70;;;23.10;46.10;;;;;;221921;1265;25398;-51
2024/01/08 04:10:53;;;;;;;5.30;4.80;;;23.00;46.10;;;;;;222292;1263;22531;-50
2024/01/08 04:15:57;;;;;;;4.90;4.50;;;23.00;46.10;;;;;;222260;1265;26646;-50
2024/01/08 04:21:05;;;;;;;5.20;4.60;;;23.00;46.00;;;;;;222183;1264;24246;-52
2024/01/08 04:26:16;;;;;;;5.60;5.10;;;23.10;45.80;;;;;;221865;1265;25413;-53
2024/01/08 04:31:21;;;;;;;4.90;4.50;;;23.10;45.90;;;;;;222134;1265;25323;-55
2024/01/08 04:36:28;;;;;;;5.50;4.30;;;23.10;45.70;;;;;;222034;1264;22536;-53
2024/01/08 04:41:32;;;;;;;4.70;4.30;;;23.10;45.90;;;;;;221852;1256;24200;-53
2024/01/08 04:46:37;;;;;;;5.50;4.80;;;23.10;45.50;;;;;;221791;1246;24286;-54
2024/01/08 04:51:41;;;;;;;5.80;5.20;;;23.10;45.50;;;;;;221922;1263;24262;-53
2024/01/08 04:56:48;;;;;;;5.20;4.70;;;23.10;45.50;;;;;;221838;1267;22519;-49
2024/01/08 05:01:52;;;;;;;5.20;4.70;;;23.10;45.70;;;;;;222248;1265;22782;-53
2024/01/08 05:06:57;;;;;;;5.10;4.60;;;23.10;45.70;;;;;;221832;1266;22530;-51
2024/01/08 05:12:02;;;;;;;4.50;4.10;;;23.10;45.60;;;;;;221666;1266;26510;-52
2024/01/08 05:17:06;;;;;;;5.30;4.80;;;23.20;45.40;;;;;;223596;1262;23876;-52
2024/01/08 05:22:11;;;;;;;4.70;4.30;;;23.30;45.00;;;;;;222016;1262;25641;-54
2024/01/08 05:27:15;;;;;;;7.00;5.10;;;23.30;45.40;;;;;;222157;1268;22693;-53
2024/01/08 05:32:20;;;;;;;5.50;5.00;;;23.30;45.40;;;;;;222301;1260;22521;-55
2024/01/08 05:37:24;;;;;;;4.70;4.30;;;23.20;45.30;;;;;;222008;1268;22533;-54
2024/01/08 05:42:29;;;;;;;5.40;4.90;;;23.00;45.60;;;;;;222076;1265;25188;-52
2024/01/08 05:47:36;;;;;;;5.20;4.70;;;22.90;45.50;;;;;;221620;1265;609190;-52
2024/01/08 05:52:43;;;;;;;6.10;4.20;;;22.90;45.80;;;;;;222105;1268;22525;-53
2024/01/08 05:57:47;;;;;;;5.40;4.90;;;22.90;46.30;;;;;;222201;1264;24053;-53
2024/01/08 06:02:51;;;;;;;5.10;4.60;;;22.50;45.60;;;;;;221824;1268;22513;-53
2024/01/08 06:07:56;;;;;;;5.00;4.60;;;22.50;46.20;;;;;;225599;1262;24229;-52
2024/01/08 06:13:00;;;;;;;5.10;4.60;;;22.70;45.50;;;;;;222267;1268;24226;-55
2024/01/08 06:18:06;;;;;;;4.70;4.30;;;22.80;45.40;;;;;;225292;1268;25498;-53
2024/01/08 06:23:10;;;;;;;5.10;4.60;;;23.00;45.10;;;;;;221673;1268;22588;-51
2024/01/08 06:28:15;;;;;;;6.30;5.00;;;23.10;44.90;;;;;;225586;1247;24337;-51
2024/01/08 06:33:19;;;;;;;4.80;4.30;;;23.10;44.70;;;;;;221781;1262;22531;-52
2024/01/08 06:38:23;;;;;;;4.90;4.50;;;23.10;45.10;;;;;;223110;1267;24982;-54
2024/01/08 06:43:28;;;;;;;4.90;4.40;;;23.10;44.80;;;;;;221550;1266;22525;-51
2024/01/08 06:48:32;;;;;;;4.00;3.70;;;23.00;45.40;;;;;;221451;1262;22538;-53
2024/01/08 06:53:37;;;;;;;5.70;4.30;;;23.00;45.50;;;;;;221786;1257;24345;-51
2024/01/08 06:58:42;;;;;;;5.40;4.90;;;23.00;46.40;;;;;;221883;1262;24488;-50
2024/01/08 07:03:46;;;;;;;8.40;5.20;;;23.10;45.80;;;;;;221998;1265;24174;-52
2024/01/08 07:08:51;;;;;;;5.80;5.30;;;22.80;46.20;;;;;;221639;1266;24196;-50
2024/01/08 07:13:55;;;;;;;7.80;4.60;;;22.70;46.70;;;;;;221383;1266;24662;-49
2024/01/08 07:19:00;;;;;;;5.80;5.20;;;22.70;47.60;;;;;;221394;1268;22553;-57
2024/01/08 07:24:05;;;;;;;6.10;5.10;;;22.60;47.20;;;;;;221435;1266;22518;-57
2024/01/08 07:29:09;;;;;;;12.70;4.80;;;22.50;47.60;;;;;;221573;1268;24293;-56
2024/01/08 07:34:14;;;;;;;6.20;5.40;;;22.20;48.10;;;;;;221875;1266;22685;-58
2024/01/08 07:39:18;;;;;;;6.20;4.70;;;22.40;47.70;;;;;;221712;1265;24195;-59
2024/01/08 07:44:22;;;;;;;7.30;4.50;;;22.50;47.70;;;;;;221645;1263;24226;-56
2024/01/08 07:49:29;;;;;;;6.60;4.70;;;22.60;47.50;;;;;;222525;1252;23855;-56
2024/01/08 07:54:34;;;;;;;6.00;4.20;;;22.70;47.30;;;;;;222105;1263;22753;-57
2024/01/08 07:59:38;;;;;;;5.10;4.60;;;22.70;47.30;;;;;;222101;1261;24259;-55
2024/01/08 08:04:43;;;;;;;8.60;4.50;;;23.00;46.80;;;;;;222001;1263;25593;-56
2024/01/08 08:09:47;;;;;;;5.30;4.80;;;22.80;46.90;;;;;;222054;1266;22699;-57
2024/01/08 08:14:51;;;;;;;6.20;5.60;;;22.70;46.50;;;;;;221853;1264;26296;-57
2024/01/08 08:19:55;;;;;;;7.40;5.10;;;22.70;46.20;;;;;;229888;1265;22333;-56
2024/01/08 08:24:59;;;;;;;14.30;5.50;;;23.00;45.60;;;;;;225864;1259;23056;-56
2024/01/08 08:30:04;;;;;;;5.60;5.10;;;22.90;45.60;;;;;;222051;1263;24320;-57
2024/01/08 08:35:11;;;;;;;5.10;4.70;;;22.50;46.00;;;;;;222315;1268;24221;-58
2024/01/08 08:40:15;;;;;;;5.50;5.00;;;22.40;45.90;;;;;;221909;1264;24202;-57
2024/01/08 08:45:19;;;;;;;5.50;5.00;;;22.30;45.80;;;;;;222551;1268;24273;-57
2024/01/08 08:50:24;;;;;;;5.90;5.10;;;22.40;45.50;;;;;;221965;1267;25202;-54
2024/01/08 08:55:28;;;;;;;5.20;4.70;;;22.50;45.40;;;;;;221721;1268;22834;-58
2024/01/08 09:00:32;;;;;;;5.20;4.70;;;22.60;45.20;;;;;;221979;1265;23149;-58
2024/01/08 09:05:37;;;;;;;7.00;5.10;;;22.60;44.90;;;;;;221910;1265;22944;-56
2024/01/08 09:10:49;;;;;;;5.90;5.40;;;22.70;44.80;;;;;;221996;1268;22557;-58
2024/01/08 09:15:53;;;;;;;6.00;5.30;;;22.70;45.00;;;;;;222062;1265;25504;-58
2024/01/08 09:20:57;;;;;;;5.50;5.00;;;22.80;44.20;;;;;;221200;1262;22617;-57
2024/01/08 09:26:04;;;;;;;6.10;5.50;;;22.90;43.90;;;;;;221083;1260;22827;-57
2024/01/08 09:31:08;;;;;;;5.10;4.70;;;23.00;44.00;;;;;;221226;1273;23622;-57
2024/01/08 09:36:13;;;;;;;6.00;5.40;;;23.00;43.80;;;;;;221410;1260;25421;-58
2024/01/08 09:41:17;;;;;;;5.30;4.80;;;22.90;43.90;;;;;;221138;1274;22569;-58
2024/01/08 09:46:30;;;;;;;6.10;5.50;;;22.80;43.90;;;;;;220867;1272;22530;-58
2024/01/08 09:51:34;;;;;;;6.20;5.70;;;22.70;44.60;;;;;;221137;1271;22530;-57
2024/01/08 09:56:38;;;;;;;5.70;5.00;;;22.70;44.40;;;;;;221342;1270;24273;-58
2024/01/08 10:01:43;;;;;;;6.40;5.70;;;22.50;44.10;;;;;;222025;1263;22517;-58
2024/01/08 10:06:47;;;;;;;5.50;5.00;;;22.50;44.10;;;;;;222287;1266;23717;-56
2024/01/08 10:11:51;;;;;;;5.90;5.40;;;22.60;43.90;;;;;;222341;1265;24200;-57
2024/01/08 10:16:55;;;;;;;6.40;5.80;;;22.70;43.90;;;;;;221851;1268;22633;-57
2024/01/08 10:22:11;;;;;;;11.50;5.50;;;22.70;43.80;;;;;;222438;1265;23743;-57
2024/01/08 10:27:15;;;;;;;6.80;6.20;;;22.70;44.40;;;;;;222199;1264;25231;-58
2024/01/08 10:32:19;;;;;;;5.90;5.30;;;22.80;43.80;;;;;;222452;1254;26647;-57
2024/01/08 10:37:26;;;;;;;5.90;5.30;;;23.00;43.70;;;;;;222603;1268;22945;-55
2024/01/08 10:42:30;;;;;;;6.50;5.90;;;23.00;43.60;;;;;;222113;1268;25341;-57
2024/01/08 10:48:05;;;;;;;5.90;5.40;;;23.00;43.50;;;;;;222124;1266;22519;-59
2024/01/08 10:53:30;;;;;;;6.30;5.70;;;23.00;43.70;;;;;;221839;1268;24216;-54
2024/01/08 10:58:35;;;;;;;7.10;6.40;;;22.90;43.80;;;;;;221726;1269;24241;-55
2024/01/08 11:03:40;;;;;;;10.10;7.00;;;22.70;42.90;;;;;;222180;1259;23025;-55
2024/01/08 11:08:45;;;;;;;7.60;6.00;;;22.70;42.90;;;;;;222056;1268;23930;-58
2024/01/08 11:13:49;;;;;;;7.60;6.20;;;22.80;42.90;;;;;;222264;1267;22538;-57
2024/01/08 11:19:18;;;;;;;8.20;6.60;;;22.70;43.50;;;;;;222664;1264;22629;-57
2024/01/08 11:24:24;;;;;;;7.50;6.50;;;22.70;43.20;;;;;;222363;1260;22580;-58
2024/01/08 11:29:28;;;;;;;7.50;6.50;;;22.60;43.20;;;;;;222314;1268;22641;-58
2024/01/08 11:34:32;;;;;;;7.20;6.50;;;22.60;43.40;;;;;;222189;1268;22533;-57
2024/01/08 11:39:40;;;;;;;7.20;5.80;;;22.60;43.40;;;;;;222378;1268;24371;-58
2024/01/08 11:44:46;;;;;;;6.70;6.10;;;22.80;43.30;;;;;;222241;1266;25300;-58
2024/01/08 11:50:04;;;;;;;7.40;6.70;;;23.20;42.50;;;;;;222418;1263;23015;-58
2024/01/08 11:55:09;;;;;;;7.70;6.60;;;23.40;42.40;;;;;;222382;1268;22606;-57
2024/01/08 12:00:18;;;;;;;6.90;6.20;;;23.40;42.20;;;;;;221757;1268;22556;-58
2024/01/08 12:05:23;;;;;;;9.10;6.90;;;23.50;42.20;;;;;;222336;1267;25406;-59
2024/01/08 12:10:28;;;;;;;8.00;6.60;;;23.60;42.00;;;;;;221904;1265;25464;-59
2024/01/08 12:15:32;;;;;;;7.50;6.70;;;23.50;42.00;;;;;;222439;1268;24262;-58
2024/01/08 12:20:38;;;;;;;9.10;6.20;;;23.40;42.10;;;;;;222073;1268;25268;-58
2024/01/08 12:25:56;;;;;;;8.10;6.50;;;23.30;42.30;;;;;;221999;1268;24194;-59
2024/01/08 12:31:01;;;;;;;7.40;6.50;;;23.10;42.30;;;;;;222200;1266;22518;-59
2024/01/08 12:36:05;;;;;;;8.60;7.40;;;23.00;42.20;;;;;;222034;1255;24434;-58
2024/01/08 12:41:10;;;;;;;8.20;6.50;;;23.00;42.70;;;;;;221434;1271;22518;-58
2024/01/08 12:46:14;;;;;;;7.80;7.00;;;22.80;42.60;;;;;;221665;1272;25318;-59
2024/01/08 12:51:18;;;;;;;8.20;7.00;;;22.90;42.40;;;;;;221664;1269;24490;-59
2024/01/08 12:56:23;;;;;;;7.20;6.60;;;22.90;42.40;;;;;;221535;1272;24193;-59
2024/01/08 13:01:27;;;;;;;8.10;7.30;;;22.80;42.80;;;;;;221793;1264;22687;-58
2024/01/08 13:06:32;;;;;;;7.90;7.10;;;22.90;42.70;;;;;;221784;1260;22531;-58
2024/01/08 13:11:37;;;;;;;7.70;7.00;;;22.80;42.60;;;;;;222066;1268;24180;-57
2024/01/08 13:16:42;;;;;;;7.40;6.70;;;22.80;42.60;;;;;;222615;1263;25383;-58
2024/01/08 13:21:46;;;;;;;7.40;6.70;;;22.70;42.90;;;;;;222143;1266;24250;-58
2024/01/08 13:26:50;;;;;;;8.00;7.20;;;22.60;42.70;;;;;;222139;1266;24534;-57
2024/01/08 13:31:55;;;;;;;8.10;7.30;;;22.70;42.50;;;;;;222312;1266;24204;-57
2024/01/08 13:36:59;;;;;;;9.30;7.70;;;22.70;42.60;;;;;;222311;1260;24278;-57
2024/01/08 13:42:03;;;;;;;8.00;7.20;;;22.80;42.50;;;;;;222209;1268;25337;-57
2024/01/08 13:47:10;;;;;;;7.90;7.10;;;23.20;41.70;;;;;;222078;1264;22538;-57
2024/01/08 13:52:14;;;;;;;10.10;6.80;;;23.10;41.80;;;;;;222047;1268;25308;-56
2024/01/08 13:57:19;;;;;;;7.90;7.10;;;22.90;42.20;;;;;;222071;1268;26188;-54
2024/01/08 14:02:24;;;;;;;8.10;7.20;;;22.80;42.20;;;;;;222029;1263;22764;-57
2024/01/08 14:07:28;;;;;;;10.20;7.00;;;22.80;42.20;;;;;;222539;1257;22560;-57
2024/01/08 14:12:33;;;;;;;8.90;6.90;;;22.70;42.00;;;;;;222542;1268;22660;-58
2024/01/08 14:17:38;;;;;;;13.80;7.00;;;22.60;42.30;;;;;;222805;1266;24250;-57
2024/01/08 14:22:42;;;;;;;8.80;7.00;;;22.50;42.10;;;;;;222438;1263;22525;-58
2024/01/08 14:27:47;;;;;;;8.40;7.00;;;22.50;42.50;;;;;;222180;1268;25386;-57
2024/01/08 14:32:52;;;;;;;7.10;6.40;;;22.40;42.30;;;;;;221841;1267;23003;-55
2024/01/08 14:37:55;;;;;;;8.00;7.10;;;22.30;42.20;;;;;;222629;1246;24193;-57
2024/01/08 14:43:00;;;;;;;7.60;6.80;;;22.30;42.20;;;;;;222155;1266;24352;-57
2024/01/08 14:48:05;;;;;;;10.20;7.40;;;22.30;42.10;;;;;;222081;1267;23173;-58
2024/01/08 14:53:12;;;;;;;11.60;8.00;;;22.20;42.70;;;;;;222577;1267;24414;-56
2024/01/08 14:58:17;;;;;;;9.40;7.80;;;22.00;42.00;;;;;;221801;1256;24230;-53
2024/01/08 15:03:24;;;;;;;8.60;7.50;;;22.00;42.40;;;;;;222176;1264;24276;-52
2024/01/08 15:08:29;;;;;;;10.90;7.90;;;22.40;41.90;;;;;;222073;1268;24224;-52
2024/01/08 15:13:36;;;;;;;9.40;8.30;;;22.60;41.10;;;;;;222181;1262;25735;-53
2024/01/08 15:18:40;;;;;;;10.60;7.90;;;22.60;41.30;;;;;;222235;1264;24245;-53
2024/01/08 15:23:45;;;;;;;10.80;7.80;;;22.60;40.90;;;;;;222137;1268;23030;-51
2024/01/08 15:28:49;;;;;;;12.80;8.80;;;22.80;41.00;;;;;;222311;1264;25295;-50
2024/01/08 15:33:53;;;;;;;11.50;8.70;;;22.90;42.70;;;;;;222431;1267;22514;-51
2024/01/08 15:38:57;;;;;;;13.50;8.40;;;22.90;43.60;;;;;;222474;1264;22747;-53
2024/01/08 15:44:03;;;;;;;15.90;8.10;;;23.00;44.60;;;;;;222463;1244;25368;-55
2024/01/08 15:49:08;;;;;;;13.20;8.60;;;23.00;45.00;;;;;;222299;1267;24258;-57
2024/01/08 15:54:14;;;;;;;12.30;8.10;;;23.00;46.00;;;;;;222187;1264;25230;-60
2024/01/08 15:59:17;;;;;;;17.00;9.20;;;23.00;46.70;;;;;;222136;1268;25536;-58
2024/01/08 16:04:22;;;;;;;14.90;8.90;;;22.90;46.00;;;;;;222656;1266;22536;-57
2024/01/08 16:09:32;;;;;;;11.20;8.80;;;22.90;46.70;;;;;;222282;1247;23994;-55
2024/01/08 16:14:36;;;;;;;12.40;9.30;;;22.60;46.70;;;;;;222485;1260;25321;-57
2024/01/08 16:19:40;;;;;;;13.20;9.60;;;22.50;46.90;;;;;;222605;1254;25521;-56
2024/01/08 16:24:45;;;;;;;15.20;10.50;;;22.40;47.10;;;;;;222695;1268;24239;-55
2024/01/08 16:29:50;;;;;;;16.00;10.40;;;22.40;46.50;;;;;;222728;1253;22518;-58
2024/01/08 16:34:56;;;;;;;12.10;10.30;;;22.30;46.20;;;;;;222287;1268;22645;-57
2024/01/08 16:40:00;;;;;;;17.80;10.50;;;22.50;46.40;;;;;;222830;1268;22532;-57
2024/01/08 16:45:05;;;;;;;14.00;10.80;;;22.70;46.30;;;;;;221820;1267;22545;-56
2024/01/08 16:50:09;;;;;;;16.20;12.10;;;22.90;45.90;;;;;;222317;1264;22600;-56
2024/01/08 16:55:15;;;;;;;16.00;11.90;;;23.00;46.00;;;;;;221911;1268;22531;-57
2024/01/08 17:00:20;;;;;;;18.70;12.60;;;23.10;45.50;;;;;;222420;1251;23883;-56
2024/01/08 17:05:24;;;;;;;17.80;13.10;;;23.10;45.20;;;;;;222107;1263;24350;-56
2024/01/08 17:10:30;;;;;;;19.20;13.50;;;23.10;45.10;;;;;;221736;1264;25501;-56
2024/01/08 17:15:35;;;;;;;23.80;13.60;;;23.10;45.20;;;;;;222157;1263;22523;-58
2024/01/08 17:20:39;;;;;;;19.90;12.70;;;23.10;45.60;;;;;;222207;1262;22521;-56
2024/01/08 17:25:44;;;;;;;19.00;13.00;;;22.90;45.40;;;;;;222639;1265;22521;-55
2024/01/08 17:30:48;;;;;;;23.50;13.50;;;22.70;45.80;;;;;;222210;1266;23965;-57
2024/01/08 17:35:52;;;;;;;22.00;15.00;;;22.60;45.90;;;;;;222388;1262;24196;-53
2024/01/08 17:40:57;;;;;;;19.10;13.90;;;22.50;46.30;;;;;;221845;1260;24268;-55
2024/01/08 17:46:01;;;;;;;23.60;14.40;;;22.50;45.70;;;;;;222450;1250;229126;-56
2024/01/08 17:51:05;;;;;;;17.00;13.10;;;22.50;46.30;;;;;;222427;1263;22520;-55
2024/01/08 17:56:09;;;;;;;23.20;14.60;;;22.60;45.10;;;;;;222196;1262;24891;-53
2024/01/08 18:01:18;;;;;;;27.70;14.90;;;22.60;45.90;;;;;;221956;1265;22660;-55
2024/01/08 18:06:29;;;;;;;26.00;15.60;;;22.60;46.80;;;;;;222073;1267;24337;-58
2024/01/08 18:11:38;;;;;;;23.40;15.20;;;22.80;47.20;;;;;;222429;1263;25346;-56
2024/01/08 18:16:45;;;;;;;23.60;15.20;;;22.90;46.80;;;;;;222194;1265;24182;-57
2024/01/08 18:21:52;;;;;;;23.90;15.50;;;23.00;46.10;;;;;;222459;1264;25072;-56
2024/01/08 18:27:03;;;;;;;24.10;15.10;;;23.10;46.00;;;;;;222030;1257;25293;-57
2024/01/08 18:32:15;;;;;;;22.50;14.60;;;23.10;45.80;;;;;;222519;1257;22603;-57
2024/01/08 18:37:26;;;;;;;26.60;14.80;;;22.90;45.70;;;;;;222318;1264;25279;-51
2024/01/08 18:42:32;;;;;;;21.40;14.10;;;22.70;46.10;;;;;;222128;1268;22640;-53
2024/01/08 18:47:39;;;;;;;21.60;15.30;;;22.60;45.90;;;;;;222497;1260;25326;-49
2024/01/08 18:52:57;;;;;;;23.80;16.40;;;22.50;46.20;;;;;;222329;1268;25438;-54
2024/01/08 18:58:02;;;;;;;28.50;18.20;;;22.60;46.10;;;;;;222245;1268;24217;-53
2024/01/08 19:03:07;;;;;;;24.40;16.80;;;22.70;46.00;;;;;;222234;1267;22802;-50
2024/01/08 19:08:13;;;;;;;26.30;16.90;;;22.70;46.10;;;;;;222325;1264;22524;-54
2024/01/08 19:13:31;;;;;;;25.30;16.90;;;22.70;46.00;;;;;;222300;1261;22556;-51
2024/01/08 19:18:48;;;;;;;28.00;17.10;;;22.90;46.10;;;;;;222492;1262;23284;-53
2024/01/08 19:23:52;;;;;;;26.30;16.90;;;22.90;45.70;;;;;;222288;1266;22547;-51
2024/01/08 19:28:57;;;;;;;28.80;17.40;;;23.00;46.00;;;;;;222089;1264;24190;-54
2024/01/08 19:34:01;;;;;;;31.20;19.00;;;23.10;45.90;;;;;;222000;1267;25276;-58
2024/01/08 19:39:06;;;;;;;27.60;18.50;;;22.80;45.80;;;;;;222207;1267;24204;-48
2024/01/08 19:44:10;;;;;;;35.00;20.00;;;22.70;45.80;;;;;;222331;1268;22531;-51
2024/01/08 19:49:15;;;;;;;31.00;17.70;;;22.60;46.00;;;;;;222180;1265;24562;-49
2024/01/08 19:54:32;;;;;;;29.70;19.10;;;22.60;46.00;;;;;;222205;1265;23376;-54
2024/01/08 19:59:37;;;;;;;34.20;19.10;;;22.70;46.50;;;;;;222325;1268;22520;-50
2024/01/08 20:04:41;;;;;;;26.10;19.20;;;22.70;45.60;;;;;;221837;1262;24887;-55
2024/01/08 20:09:49;;;;;;;29.30;19.10;;;22.80;45.30;;;;;;222309;1266;24196;-52
2024/01/08 20:14:53;;;;;;;29.50;18.20;;;22.80;45.20;;;;;;222042;1268;22536;-48
2024/01/08 20:19:57;;;;;;;34.30;18.00;;;22.90;45.20;;;;;;222269;1263;24225;-53
2024/01/08 20:25:01;;;;;;;28.10;17.30;;;23.00;44.80;;;;;;222548;1246;24202;-51
2024/01/08 20:30:07;;;;;;;28.50;18.10;;;23.00;44.80;;;;;;222029;1256;24196;-51
2024/01/08 20:35:11;;;;;;;28.70;18.20;;;22.90;45.70;;;;;;222058;1265;22767;-51
2024/01/08 20:40:16;;;;;;;30.00;18.80;;;22.90;44.70;;;;;;221842;1262;24246;-54
2024/01/08 20:45:23;;;;;;;28.20;18.40;;;22.70;44.90;;;;;;221955;1266;22692;-52
2024/01/08 20:50:28;;;;;;;32.00;18.20;;;22.70;45.30;;;;;;222109;1267;22520;-51
2024/01/08 20:55:34;;;;;;;27.30;18.10;;;22.50;45.10;;;;;;222177;1268;25271;-51
2024/01/08 21:00:38;;;;;;;30.20;20.50;;;22.40;45.60;;;;;;222164;1267;23147;-53
2024/01/08 21:05:42;;;;;;;30.30;20.00;;;22.30;45.60;;;;;;221932;1265;25607;-49
2024/01/08 21:10:52;;;;;;;28.70;18.70;;;22.40;45.30;;;;;;222213;1262;22523;-50
2024/01/08 21:15:56;;;;;;;31.60;20.70;;;22.60;45.30;;;;;;221902;1263;22535;-50
2024/01/08 21:21:08;;;;;;;32.40;20.40;;;22.80;44.70;;;;;;222015;1265;23123;-50
2024/01/08 21:26:13;;;;;;;29.90;18.90;;;22.90;44.70;;;;;;222163;1263;24458;-52
2024/01/08 21:31:18;;;;;;;28.40;18.70;;;23.00;44.40;;;;;;222165;1262;24193;-51
2024/01/08 21:36:24;;;;;;;29.10;19.30;;;23.00;44.10;;;;;;221777;1263;24189;-53
2024/01/08 21:41:28;;;;;;;27.70;19.50;;;23.10;43.90;;;;;;222061;1263;25520;-48
2024/01/08 21:46:32;;;;;;;30.30;20.40;;;23.20;44.00;;;;;;221894;1268;22993;-50
2024/01/08 21:51:36;;;;;;;26.60;19.70;;;23.10;44.00;;;;;;221627;1261;24299;-48
2024/01/08 21:56:42;;;;;;;25.90;19.00;;;23.00;44.10;;;;;;222171;1262;22531;-50
2024/01/08 22:01:46;;;;;;;28.80;20.50;;;23.00;45.20;;;;;;221873;1265;22529;-49
2024/01/08 22:06:50;;;;;;;26.60;19.70;;;23.00;45.30;;;;;;221889;1268;22517;-47
2024/01/08 22:11:54;;;;;;;96.30;41.10;;;22.90;44.70;;;;;;221813;1259;22517;-49
2024/01/08 22:16:58;;;;;;;220.50;86.80;;;22.80;43.40;;;;;;221930;1268;23162;-50
2024/01/08 22:22:03;;;;;;;276.00;105.50;;;22.90;43.70;;;;;;221883;1269;22547;-48
2024/01/08 22:27:07;;;;;;;293.80;107.40;;;22.90;43.70;;;;;;222325;1249;24217;-47
2024/01/08 22:32:11;;;;;;;249.60;97.60;;;23.00;43.80;;;;;;221870;1265;24157;-50
2024/01/08 22:37:15;;;;;;;228.20;92.20;;;23.10;43.70;;;;;;222127;1261;22711;-51
2024/01/08 22:42:20;;;;;;;200.20;79.80;;;23.10;44.20;;;;;;222310;1262;24197;-49
2024/01/08 22:47:25;;;;;;;209.40;77.40;;;23.00;44.30;;;;;;222236;1259;22517;-48
2024/01/08 22:52:31;;;;;;;198.70;74.50;;;23.10;44.30;;;;;;222178;1266;22530;-49
2024/01/08 22:57:38;;;;;;;162.50;69.50;;;23.10;44.60;;;;;;222064;1262;22872;-53
2024/01/08 23:02:43;;;;;;;158.60;68.40;;;23.20;52.50;;;;;;222225;1263;24250;-49
2024/01/08 23:07:47;;;;;;;162.70;68.10;;;23.20;49.20;;;;;;222137;1266;22638;-47
2024/01/08 23:12:52;;;;;;;153.30;63.50;;;23.30;49.90;;;;;;222184;1265;22525;-47
2024/01/08 23:17:56;;;;;;;143.50;64.60;;;23.30;49.20;;;;;;222141;1262;24253;-51
2024/01/08 23:23:01;;;;;;;143.30;62.60;;;23.30;48.80;;;;;;221993;1262;23998;-50
2024/01/08 23:28:05;;;;;;;144.80;63.10;;;23.10;47.50;;;;;;222490;1265;24197;-47
2024/01/08 23:33:10;;;;;;;137.40;61.60;;;23.00;47.50;;;;;;222009;1247;22544;-51
2024/01/08 23:38:15;;;;;;;126.90;57.40;;;23.00;47.50;;;;;;221944;1268;22518;-48
2024/01/08 23:43:20;;;;;;;135.40;58.00;;;23.00;47.50;;;;;;222267;1263;23902;-48
2024/01/08 23:48:24;;;;;;;127.10;55.70;;;23.00;47.70;;;;;;221832;1266;24264;-49
2024/01/08 23:53:28;;;;;;;121.90;55.00;;;23.10;47.40;;;;;;222233;1268;25316;-49
2024/01/08 23:58:33;;;;;;;122.80;52.10;;;23.00;47.20;;;;;;222208;1254;23905;-48
